sensor_id;sensor_type;location;lat;lon;timestamp;pressure;altitude;pressure_sealevel;temperature;humidity
26657;BME280;14279;50.010;8.260;2022-10-22T00:02:18;100053.13;;;16.50;97.48
26657;BME280;14279;50.010;8.260;2022-10-22T00:04:48;100041.94;;;16.59;97.25
26657;BME280;14279;50.010;8.260;2022-10-22T00:07:15;100039.63;;;16.55;97.67
26657;BME280;14279;50.010;8.260;2022-10-22T00:09:40;100036.78;;;16.58;97.52
26657;BME280;14279;50.010;8.260;2022-10-22T00:12:06;100039.31;;;16.59;97.68
26657;BME280;14279;50.010;8.260;2022-10-22T00:14:31;100040.13;;;16.60;98.20
26657;BME280;14279;50.010;8.260;2022-10-22T00:16:56;100036.06;;;16.67;98.35
26657;BME280;14279;50.010;8.260;2022-10-22T00:19:25;100039.66;;;16.66;98.92
26657;BME280;14279;50.010;8.260;2022-10-22T00:21:50;100047.66;;;16.64;98.86
26657;BME280;14279;50.010;8.260;2022-10-22T00:24:15;100050.75;;;16.70;98.86
26657;BME280;14279;50.010;8.260;2022-10-22T00:26:40;100040.25;;;16.70;99.07
26657;BME280;14279;50.010;8.260;2022-10-22T00:29:06;100038.56;;;16.68;98.48
26657;BME280;14279;50.010;8.260;2022-10-22T00:31:31;100029.00;;;16.67;98.92
26657;BME280;14279;50.010;8.260;2022-10-22T00:33:56;100032.50;;;16.68;98.31
26657;BME280;14279;50.010;8.260;2022-10-22T00:36:21;100027.34;;;16.66;99.36
26657;BME280;14279;50.010;8.260;2022-10-22T00:38:47;100027.69;;;16.62;99.50
26657;BME280;14279;50.010;8.260;2022-10-22T00:41:12;100025.78;;;16.64;99.56
26657;BME280;14279;50.010;8.260;2022-10-22T00:43:56;100031.78;;;16.66;99.45
26657;BME280;14279;50.010;8.260;2022-10-22T00:46:21;100024.00;;;16.64;100.00
26657;BME280;14279;50.010;8.260;2022-10-22T00:48:47;100026.84;;;16.61;100.00
26657;BME280;14279;50.010;8.260;2022-10-22T00:51:12;100025.91;;;16.62;100.00
26657;BME280;14279;50.010;8.260;2022-10-22T00:53:42;100015.38;;;16.62;99.62
26657;BME280;14279;50.010;8.260;2022-10-22T00:56:08;100016.97;;;16.65;99.37
26657;BME280;14279;50.010;8.260;2022-10-22T00:58:36;100006.44;;;16.53;100.00
26657;BME280;14279;50.010;8.260;2022-10-22T01:01:04;100015.50;;;16.49;99.48
26657;BME280;14279;50.010;8.260;2022-10-22T01:03:31;100018.47;;;16.45;99.83
26657;BME280;14279;50.010;8.260;2022-10-22T01:05:58;100022.19;;;16.42;99.98
26657;BME280;14279;50.010;8.260;2022-10-22T01:11:39;100026.94;;;16.37;100.00
26657;BME280;14279;50.010;8.260;2022-10-22T01:14:17;100030.16;;;16.29;100.00
26657;BME280;14279;50.010;8.260;2022-10-22T01:21:58;100039.81;;;15.93;100.00
26657;BME280;14279;50.010;8.260;2022-10-22T01:24:51;100048.91;;;15.89;100.00
26657;BME280;14279;50.010;8.260;2022-10-22T01:30:18;100053.69;;;15.95;100.00
26657;BME280;14279;50.010;8.260;2022-10-22T01:32:50;100052.50;;;15.99;100.00
26657;BME280;14279;50.010;8.260;2022-10-22T01:35:26;100059.31;;;16.02;100.00
26657;BME280;14279;50.010;8.260;2022-10-22T01:37:58;100060.03;;;16.04;100.00
26657;BME280;14279;50.010;8.260;2022-10-22T01:40:25;100061.19;;;15.88;100.00
26657;BME280;14279;50.010;8.260;2022-10-22T01:43:26;100053.84;;;15.81;100.00
26657;BME280;14279;50.010;8.260;2022-10-22T01:45:47;100055.50;;;15.82;100.00
26657;BME280;14279;50.010;8.260;2022-10-22T01:48:33;100051.75;;;15.86;100.00
26657;BME280;14279;50.010;8.260;2022-10-22T01:53:39;100067.91;;;15.80;100.00
26657;BME280;14279;50.010;8.260;2022-10-22T01:56:29;100060.25;;;15.76;100.00
26657;BME280;14279;50.010;8.260;2022-10-22T01:59:07;100063.00;;;15.75;100.00
26657;BME280;14279;50.010;8.260;2022-10-22T02:01:45;100052.50;;;15.75;100.00
26657;BME280;14279;50.010;8.260;2022-10-22T02:04:33;100046.06;;;15.79;100.00
26657;BME280;14279;50.010;8.260;2022-10-22T02:07:02;100040.06;;;15.90;99.34
26657;BME280;14279;50.010;8.260;2022-10-22T02:09:30;100046.16;;;15.90;98.84
26657;BME280;14279;50.010;8.260;2022-10-22T02:11:59;100048.69;;;15.79;98.93
26657;BME280;14279;50.010;8.260;2022-10-22T02:14:28;100052.88;;;15.82;99.17
26657;BME280;14279;50.010;8.260;2022-10-22T02:16:55;100064.88;;;15.86;98.82
26657;BME280;14279;50.010;8.260;2022-10-22T02:19:35;100066.00;;;15.82;98.52
26657;BME280;14279;50.010;8.260;2022-10-22T02:22:02;100070.41;;;15.81;99.01
26657;BME280;14279;50.010;8.260;2022-10-22T02:24:29;100061.81;;;15.79;98.08
26657;BME280;14279;50.010;8.260;2022-10-22T02:29:40;100040.09;;;16.01;97.04
26657;BME280;14279;50.010;8.260;2022-10-22T02:32:09;100052.94;;;15.93;96.70
26657;BME280;14279;50.010;8.260;2022-10-22T02:34:36;100050.00;;;15.98;96.27
26657;BME280;14279;50.010;8.260;2022-10-22T02:37:02;100054.34;;;16.10;95.60
26657;BME280;14279;50.010;8.260;2022-10-22T02:39:29;100051.13;;;16.18;95.31
26657;BME280;14279;50.010;8.260;2022-10-22T02:41:56;100056.38;;;16.18;94.68
26657;BME280;14279;50.010;8.260;2022-10-22T02:44:22;100042.06;;;16.22;93.69
26657;BME280;14279;50.010;8.260;2022-10-22T02:46:48;100046.16;;;16.37;92.58
26657;BME280;14279;50.010;8.260;2022-10-22T02:49:13;100053.34;;;16.47;92.82
26657;BME280;14279;50.010;8.260;2022-10-22T02:51:38;100044.16;;;16.52;92.11
26657;BME280;14279;50.010;8.260;2022-10-22T02:54:04;100047.75;;;16.51;92.18
26657;BME280;14279;50.010;8.260;2022-10-22T02:56:29;100051.81;;;16.56;92.05
26657;BME280;14279;50.010;8.260;2022-10-22T02:58:54;100049.81;;;16.59;91.32
26657;BME280;14279;50.010;8.260;2022-10-22T03:01:19;100053.03;;;16.63;90.78
26657;BME280;14279;50.010;8.260;2022-10-22T03:03:45;100052.06;;;16.64;91.36
26657;BME280;14279;50.010;8.260;2022-10-22T03:06:10;100053.84;;;16.63;91.09
26657;BME280;14279;50.010;8.260;2022-10-22T03:08:35;100058.16;;;16.64;90.85
26657;BME280;14279;50.010;8.260;2022-10-22T03:11:00;100051.22;;;16.63;91.76
26657;BME280;14279;50.010;8.260;2022-10-22T03:13:26;100065.09;;;16.65;92.83
26657;BME280;14279;50.010;8.260;2022-10-22T03:15:51;100071.78;;;16.70;92.55
26657;BME280;14279;50.010;8.260;2022-10-22T03:18:16;100070.47;;;16.64;93.34
26657;BME280;14279;50.010;8.260;2022-10-22T03:20:42;100068.78;;;16.63;92.94
26657;BME280;14279;50.010;8.260;2022-10-22T03:23:08;100077.13;;;16.57;93.10
26657;BME280;14279;50.010;8.260;2022-10-22T03:25:34;100079.28;;;16.51;92.34
26657;BME280;14279;50.010;8.260;2022-10-22T03:28:02;100074.72;;;16.42;91.22
26657;BME280;14279;50.010;8.260;2022-10-22T03:30:28;100087.38;;;16.37;90.62
26657;BME280;14279;50.010;8.260;2022-10-22T03:32:54;100087.88;;;16.42;90.31
26657;BME280;14279;50.010;8.260;2022-10-22T03:35:19;100082.16;;;16.48;89.96
26657;BME280;14279;50.010;8.260;2022-10-22T03:37:44;100083.84;;;16.61;89.83
26657;BME280;14279;50.010;8.260;2022-10-22T03:40:10;100091.84;;;16.59;90.91
26657;BME280;14279;50.010;8.260;2022-10-22T03:42:36;100083.59;;;16.64;89.88
26657;BME280;14279;50.010;8.260;2022-10-22T03:45:02;100095.06;;;16.63;89.61
26657;BME280;14279;50.010;8.260;2022-10-22T03:47:28;100097.47;;;16.66;90.38
26657;BME280;14279;50.010;8.260;2022-10-22T03:49:53;100102.72;;;16.66;90.41
26657;BME280;14279;50.010;8.260;2022-10-22T03:52:18;100116.78;;;16.53;89.94
26657;BME280;14279;50.010;8.260;2022-10-22T03:54:43;100118.44;;;16.43;90.14
26657;BME280;14279;50.010;8.260;2022-10-22T03:57:09;100121.06;;;16.43;89.71
26657;BME280;14279;50.010;8.260;2022-10-22T03:59:36;100119.72;;;16.37;90.38
26657;BME280;14279;50.010;8.260;2022-10-22T04:02:02;100126.66;;;16.38;89.63
26657;BME280;14279;50.010;8.260;2022-10-22T04:04:27;100131.19;;;16.36;90.86
26657;BME280;14279;50.010;8.260;2022-10-22T04:06:53;100138.50;;;16.44;90.32
26657;BME280;14279;50.010;8.260;2022-10-22T04:09:18;100139.81;;;16.50;89.86
26657;BME280;14279;50.010;8.260;2022-10-22T04:11:44;100150.22;;;16.51;90.42
26657;BME280;14279;50.010;8.260;2022-10-22T04:14:09;100154.84;;;16.36;89.97
26657;BME280;14279;50.010;8.260;2022-10-22T04:16:38;100155.66;;;16.37;90.20
26657;BME280;14279;50.010;8.260;2022-10-22T04:19:03;100148.00;;;16.34;90.65
26657;BME280;14279;50.010;8.260;2022-10-22T04:21:28;100160.91;;;16.37;90.93
26657;BME280;14279;50.010;8.260;2022-10-22T04:23:54;100164.16;;;16.41;90.73
26657;BME280;14279;50.010;8.260;2022-10-22T04:26:19;100176.75;;;16.24;91.11
26657;BME280;14279;50.010;8.260;2022-10-22T04:28:45;100177.53;;;16.13;91.84
26657;BME280;14279;50.010;8.260;2022-10-22T04:31:13;100179.50;;;16.22;91.09
26657;BME280;14279;50.010;8.260;2022-10-22T04:33:41;100187.28;;;16.11;91.60
26657;BME280;14279;50.010;8.260;2022-10-22T04:36:09;100188.53;;;16.18;89.91
26657;BME280;14279;50.010;8.260;2022-10-22T04:38:35;100188.84;;;16.14;90.78
26657;BME280;14279;50.010;8.260;2022-10-22T04:41:13;100190.00;;;16.22;90.06
26657;BME280;14279;50.010;8.260;2022-10-22T04:43:39;100189.59;;;16.16;90.25
26657;BME280;14279;50.010;8.260;2022-10-22T04:46:09;100186.88;;;16.17;90.44
26657;BME280;14279;50.010;8.260;2022-10-22T04:48:36;100190.16;;;16.32;90.41
26657;BME280;14279;50.010;8.260;2022-10-22T04:51:02;100187.69;;;16.18;90.62
26657;BME280;14279;50.010;8.260;2022-10-22T04:53:27;100183.00;;;16.10;90.53
26657;BME280;14279;50.010;8.260;2022-10-22T04:55:53;100187.91;;;16.15;90.23
26657;BME280;14279;50.010;8.260;2022-10-22T04:58:18;100193.19;;;16.02;90.71
26657;BME280;14279;50.010;8.260;2022-10-22T05:00:44;100195.72;;;16.03;90.71
26657;BME280;14279;50.010;8.260;2022-10-22T05:03:09;100189.03;;;15.99;90.90
26657;BME280;14279;50.010;8.260;2022-10-22T05:05:34;100187.06;;;16.14;90.76
26657;BME280;14279;50.010;8.260;2022-10-22T05:07:59;100184.63;;;16.00;90.80
26657;BME280;14279;50.010;8.260;2022-10-22T05:10:25;100186.53;;;15.98;90.57
26657;BME280;14279;50.010;8.260;2022-10-22T05:12:50;100184.53;;;15.88;90.76
26657;BME280;14279;50.010;8.260;2022-10-22T05:15:15;100188.41;;;15.83;90.59
26657;BME280;14279;50.010;8.260;2022-10-22T05:17:40;100191.88;;;15.83;90.58
26657;BME280;14279;50.010;8.260;2022-10-22T05:20:06;100188.28;;;15.84;89.62
26657;BME280;14279;50.010;8.260;2022-10-22T05:22:33;100189.66;;;15.77;89.88
26657;BME280;14279;50.010;8.260;2022-10-22T05:24:58;100186.75;;;15.82;89.58
26657;BME280;14279;50.010;8.260;2022-10-22T05:27:24;100188.63;;;15.80;89.19
26657;BME280;14279;50.010;8.260;2022-10-22T05:29:49;100188.63;;;15.80;88.93
26657;BME280;14279;50.010;8.260;2022-10-22T05:32:14;100189.66;;;15.77;88.84
26657;BME280;14279;50.010;8.260;2022-10-22T05:34:40;100193.88;;;15.80;88.30
26657;BME280;14279;50.010;8.260;2022-10-22T05:37:05;100202.91;;;15.88;88.19
26657;BME280;14279;50.010;8.260;2022-10-22T05:39:30;100200.06;;;15.91;87.87
26657;BME280;14279;50.010;8.260;2022-10-22T05:41:55;100206.50;;;15.87;87.45
26657;BME280;14279;50.010;8.260;2022-10-22T05:44:21;100206.41;;;15.89;87.54
26657;BME280;14279;50.010;8.260;2022-10-22T05:46:46;100208.91;;;15.90;87.69
26657;BME280;14279;50.010;8.260;2022-10-22T05:49:13;100212.88;;;15.83;88.37
26657;BME280;14279;50.010;8.260;2022-10-22T05:51:39;100210.06;;;15.86;87.56
26657;BME280;14279;50.010;8.260;2022-10-22T05:54:06;100216.44;;;15.82;88.05
26657;BME280;14279;50.010;8.260;2022-10-22T05:56:32;100212.69;;;15.86;87.67
26657;BME280;14279;50.010;8.260;2022-10-22T05:59:00;100219.19;;;15.81;87.65
26657;BME280;14279;50.010;8.260;2022-10-22T06:01:28;100215.41;;;15.72;88.18
26657;BME280;14279;50.010;8.260;2022-10-22T06:03:56;100230.72;;;15.78;88.10
26657;BME280;14279;50.010;8.260;2022-10-22T06:06:44;100228.53;;;15.72;87.75
26657;BME280;14279;50.010;8.260;2022-10-22T06:11:41;100231.72;;;15.64;87.98
26657;BME280;14279;50.010;8.260;2022-10-22T06:14:08;100233.59;;;15.62;88.21
26657;BME280;14279;50.010;8.260;2022-10-22T06:16:33;100235.88;;;15.67;87.66
26657;BME280;14279;50.010;8.260;2022-10-22T06:18:59;100246.59;;;15.63;87.99
26657;BME280;14279;50.010;8.260;2022-10-22T06:21:28;100245.53;;;15.66;87.79
26657;BME280;14279;50.010;8.260;2022-10-22T06:23:55;100257.31;;;15.60;88.03
26657;BME280;14279;50.010;8.260;2022-10-22T06:26:21;100260.56;;;15.64;88.22
26657;BME280;14279;50.010;8.260;2022-10-22T06:28:46;100260.03;;;15.59;88.86
26657;BME280;14279;50.010;8.260;2022-10-22T06:31:11;100264.56;;;15.57;88.76
26657;BME280;14279;50.010;8.260;2022-10-22T06:33:36;100270.13;;;15.52;88.43
26657;BME280;14279;50.010;8.260;2022-10-22T06:36:18;100282.50;;;15.37;89.26
26657;BME280;14279;50.010;8.260;2022-10-22T06:38:44;100284.25;;;15.37;88.80
26657;BME280;14279;50.010;8.260;2022-10-22T06:41:12;100288.78;;;15.47;88.87
26657;BME280;14279;50.010;8.260;2022-10-22T06:43:39;100286.16;;;15.47;88.51
26657;BME280;14279;50.010;8.260;2022-10-22T06:46:07;100298.66;;;15.44;88.12
26657;BME280;14279;50.010;8.260;2022-10-22T06:48:34;100292.25;;;15.48;88.28
26657;BME280;14279;50.010;8.260;2022-10-22T06:51:09;100300.22;;;15.59;87.98
26657;BME280;14279;50.010;8.260;2022-10-22T06:53:35;100306.41;;;15.58;88.64
26657;BME280;14279;50.010;8.260;2022-10-22T06:56:13;100308.63;;;15.65;88.04
26657;BME280;14279;50.010;8.260;2022-10-22T06:58:42;100316.28;;;15.55;87.49
26657;BME280;14279;50.010;8.260;2022-10-22T07:01:12;100314.50;;;15.55;87.42
26657;BME280;14279;50.010;8.260;2022-10-22T07:03:40;100322.91;;;15.73;87.65
26657;BME280;14279;50.010;8.260;2022-10-22T07:06:08;100318.41;;;15.88;86.83
26657;BME280;14279;50.010;8.260;2022-10-22T07:08:33;100323.25;;;15.95;86.01
26657;BME280;14279;50.010;8.260;2022-10-22T07:11:08;100325.22;;;16.04;85.01
26657;BME280;14279;50.010;8.260;2022-10-22T07:13:34;100326.81;;;16.06;85.48
26657;BME280;14279;50.010;8.260;2022-10-22T07:15:59;100335.31;;;15.97;84.35
26657;BME280;14279;50.010;8.260;2022-10-22T07:18:25;100348.00;;;15.77;85.09
26657;BME280;14279;50.010;8.260;2022-10-22T07:20:51;100348.81;;;15.65;85.47
26657;BME280;14279;50.010;8.260;2022-10-22T07:23:16;100357.75;;;15.62;85.44
26657;BME280;14279;50.010;8.260;2022-10-22T07:25:42;100362.03;;;15.63;86.07
26657;BME280;14279;50.010;8.260;2022-10-22T07:28:07;100362.44;;;15.57;85.58
26657;BME280;14279;50.010;8.260;2022-10-22T07:30:34;100368.78;;;15.68;85.33
26657;BME280;14279;50.010;8.260;2022-10-22T07:32:59;100362.88;;;15.51;85.49
26657;BME280;14279;50.010;8.260;2022-10-22T07:35:25;100371.47;;;15.66;84.91
26657;BME280;14279;50.010;8.260;2022-10-22T07:37:50;100376.84;;;15.65;85.07
26657;BME280;14279;50.010;8.260;2022-10-22T07:40:20;100377.38;;;15.57;85.07
26657;BME280;14279;50.010;8.260;2022-10-22T07:42:45;100380.72;;;15.46;85.63
26657;BME280;14279;50.010;8.260;2022-10-22T07:45:10;100385.97;;;15.46;85.97
26657;BME280;14279;50.010;8.260;2022-10-22T07:47:36;100377.56;;;15.54;85.26
26657;BME280;14279;50.010;8.260;2022-10-22T07:50:01;100387.63;;;15.47;84.92
26657;BME280;14279;50.010;8.260;2022-10-22T07:52:26;100392.97;;;15.45;85.15
26657;BME280;14279;50.010;8.260;2022-10-22T07:54:52;100384.66;;;15.39;85.25
26657;BME280;14279;50.010;8.260;2022-10-22T07:57:17;100392.88;;;15.47;85.18
26657;BME280;14279;50.010;8.260;2022-10-22T07:59:42;100386.16;;;15.43;84.67
26657;BME280;14279;50.010;8.260;2022-10-22T08:02:10;100387.13;;;15.68;84.24
26657;BME280;14279;50.010;8.260;2022-10-22T08:04:35;100393.75;;;15.60;83.84
26657;BME280;14279;50.010;8.260;2022-10-22T08:07:01;100404.56;;;15.69;83.49
26657;BME280;14279;50.010;8.260;2022-10-22T08:09:26;100402.88;;;15.68;82.77
26657;BME280;14279;50.010;8.260;2022-10-22T08:11:51;100413.25;;;15.69;83.21
26657;BME280;14279;50.010;8.260;2022-10-22T08:14:16;100400.28;;;15.81;83.06
26657;BME280;14279;50.010;8.260;2022-10-22T08:16:42;100408.97;;;15.81;82.90
26657;BME280;14279;50.010;8.260;2022-10-22T08:19:07;100410.13;;;15.77;82.53
26657;BME280;14279;50.010;8.260;2022-10-22T08:21:32;100410.88;;;15.79;82.26
26657;BME280;14279;50.010;8.260;2022-10-22T08:23:58;100421.84;;;15.86;82.13
26657;BME280;14279;50.010;8.260;2022-10-22T08:26:23;100424.03;;;15.92;81.74
26657;BME280;14279;50.010;8.260;2022-10-22T08:28:48;100427.59;;;16.17;80.62
26657;BME280;14279;50.010;8.260;2022-10-22T08:31:14;100430.47;;;15.88;80.97
26657;BME280;14279;50.010;8.260;2022-10-22T08:33:39;100441.28;;;16.09;80.65
26657;BME280;14279;50.010;8.260;2022-10-22T08:36:05;100436.88;;;16.22;79.21
26657;BME280;14279;50.010;8.260;2022-10-22T08:38:31;100436.03;;;16.22;79.98
26657;BME280;14279;50.010;8.260;2022-10-22T08:41:05;100438.56;;;16.23;79.58
26657;BME280;14279;50.010;8.260;2022-10-22T08:48:59;100431.50;;;16.37;78.15
26657;BME280;14279;50.010;8.260;2022-10-22T08:51:30;100443.16;;;16.33;78.35
26657;BME280;14279;50.010;8.260;2022-10-22T08:54:18;100442.63;;;16.28;78.18
26657;BME280;14279;50.010;8.260;2022-10-22T08:56:58;100445.88;;;16.44;78.08
26657;BME280;14279;50.010;8.260;2022-10-22T08:59:34;100443.31;;;16.68;76.54
26657;BME280;14279;50.010;8.260;2022-10-22T09:02:22;100447.50;;;16.97;74.77
26657;BME280;14279;50.010;8.260;2022-10-22T09:04:55;100450.53;;;17.04;75.23
26657;BME280;14279;50.010;8.260;2022-10-22T09:07:26;100440.88;;;17.40;74.54
26657;BME280;14279;50.010;8.260;2022-10-22T09:09:53;100443.31;;;17.19;74.47
26657;BME280;14279;50.010;8.260;2022-10-22T09:12:23;100449.34;;;17.08;74.49
26657;BME280;14279;50.010;8.260;2022-10-22T09:14:49;100439.00;;;17.18;74.15
26657;BME280;14279;50.010;8.260;2022-10-22T09:25:19;100456.13;;;17.23;73.54
26657;BME280;14279;50.010;8.260;2022-10-22T09:27:45;100458.38;;;17.17;72.47
26657;BME280;14279;50.010;8.260;2022-10-22T09:30:17;100460.44;;;17.24;73.33
26657;BME280;14279;50.010;8.260;2022-10-22T09:32:43;100455.16;;;17.49;73.06
26657;BME280;14279;50.010;8.260;2022-10-22T09:35:13;100458.09;;;17.33;72.64
26657;BME280;14279;50.010;8.260;2022-10-22T09:37:48;100455.94;;;17.38;72.70
26657;BME280;14279;50.010;8.260;2022-10-22T09:40:15;100456.59;;;17.53;71.97
26657;BME280;14279;50.010;8.260;2022-10-22T09:42:40;100454.81;;;17.29;72.92
26657;BME280;14279;50.010;8.260;2022-10-22T09:45:06;100447.38;;;17.23;73.20
26657;BME280;14279;50.010;8.260;2022-10-22T09:47:38;100452.81;;;17.33;73.05
26657;BME280;14279;50.010;8.260;2022-10-22T09:50:26;100457.63;;;17.39;72.75
26657;BME280;14279;50.010;8.260;2022-10-22T09:53:04;100456.38;;;17.56;72.58
26657;BME280;14279;50.010;8.260;2022-10-22T09:55:37;100455.63;;;17.78;71.31
26657;BME280;14279;50.010;8.260;2022-10-22T09:58:03;100453.00;;;17.90;70.98
26657;BME280;14279;50.010;8.260;2022-10-22T10:00:29;100459.13;;;17.90;70.98
26657;BME280;14279;50.010;8.260;2022-10-22T10:02:56;100464.94;;;18.07;70.85
26657;BME280;14279;50.010;8.260;2022-10-22T10:05:28;100479.94;;;18.29;69.22
26657;BME280;14279;50.010;8.260;2022-10-22T10:07:54;100470.31;;;18.05;67.98
26657;BME280;14279;50.010;8.260;2022-10-22T10:10:32;100474.78;;;18.39;68.15
26657;BME280;14279;50.010;8.260;2022-10-22T10:15:55;100469.63;;;18.26;69.04
26657;BME280;14279;50.010;8.260;2022-10-22T10:18:33;100470.19;;;18.07;69.03
26657;BME280;14279;50.010;8.260;2022-10-22T10:21:25;100474.59;;;18.06;69.27
26657;BME280;14279;50.010;8.260;2022-10-22T10:24:22;100480.03;;;18.27;69.38
26657;BME280;14279;50.010;8.260;2022-10-22T10:27:33;100481.38;;;18.44;68.63
26657;BME280;14279;50.010;8.260;2022-10-22T10:30:16;100483.44;;;18.63;68.13
26657;BME280;14279;50.010;8.260;2022-10-22T10:32:54;100486.06;;;18.52;67.66
26657;BME280;14279;50.010;8.260;2022-10-22T10:40:52;100481.34;;;18.33;68.65
26657;BME280;14279;50.010;8.260;2022-10-22T10:51:36;100475.00;;;18.70;68.17
26657;BME280;14279;50.010;8.260;2022-10-22T10:54:20;100472.03;;;18.74;68.31
26657;BME280;14279;50.010;8.260;2022-10-22T10:57:15;100470.94;;;18.77;68.01
26657;BME280;14279;50.010;8.260;2022-10-22T10:59:55;100472.88;;;18.63;68.29
26657;BME280;14279;50.010;8.260;2022-10-22T11:02:33;100473.59;;;18.88;66.92
26657;BME280;14279;50.010;8.260;2022-10-22T11:05:25;100476.31;;;19.10;66.65
26657;BME280;14279;50.010;8.260;2022-10-22T11:08:08;100471.63;;;18.90;67.38
26657;BME280;14279;50.010;8.260;2022-10-22T11:10:58;100473.81;;;19.08;66.69
26657;BME280;14279;50.010;8.260;2022-10-22T11:13:37;100469.59;;;19.17;66.24
26657;BME280;14279;50.010;8.260;2022-10-22T11:19:02;100469.00;;;19.46;65.49
26657;BME280;14279;50.010;8.260;2022-10-22T11:21:38;100472.34;;;19.15;64.02
26657;BME280;14279;50.010;8.260;2022-10-22T11:24:33;100468.16;;;19.13;64.55
26657;BME280;14279;50.010;8.260;2022-10-22T11:27:34;100468.72;;;19.16;64.67
26657;BME280;14279;50.010;8.260;2022-10-22T11:30:21;100472.00;;;19.08;63.81
26657;BME280;14279;50.010;8.260;2022-10-22T11:32:52;100462.25;;;19.20;63.78
26657;BME280;14279;50.010;8.260;2022-10-22T11:35:23;100462.41;;;19.40;64.47
26657;BME280;14279;50.010;8.260;2022-10-22T11:37:50;100476.00;;;19.35;65.09
26657;BME280;14279;50.010;8.260;2022-10-22T11:40:31;100471.47;;;19.59;63.21
26657;BME280;14279;50.010;8.260;2022-10-22T11:43:09;100465.88;;;19.73;64.22
26657;BME280;14279;50.010;8.260;2022-10-22T11:45:36;100465.06;;;19.73;64.00
26657;BME280;14279;50.010;8.260;2022-10-22T11:53:30;100453.94;;;19.90;62.05
26657;BME280;14279;50.010;8.260;2022-10-22T11:56:04;100444.97;;;20.03;60.90
26657;BME280;14279;50.010;8.260;2022-10-22T11:58:46;100453.34;;;20.08;59.78
26657;BME280;14279;50.010;8.260;2022-10-22T12:03:47;100440.28;;;20.06;60.38
26657;BME280;14279;50.010;8.260;2022-10-22T12:19:04;100428.38;;;20.22;59.10
26657;BME280;14279;50.010;8.260;2022-10-22T12:21:32;100429.88;;;20.15;60.04
26657;BME280;14279;50.010;8.260;2022-10-22T12:23:58;100426.75;;;20.31;59.78
26657;BME280;14279;50.010;8.260;2022-10-22T12:26:27;100430.00;;;20.13;59.47
26657;BME280;14279;50.010;8.260;2022-10-22T12:29:01;100432.47;;;20.05;60.06
26657;BME280;14279;50.010;8.260;2022-10-22T12:31:34;100426.97;;;20.18;59.89
26657;BME280;14279;50.010;8.260;2022-10-22T12:33:59;100424.56;;;20.15;59.26
26657;BME280;14279;50.010;8.260;2022-10-22T12:36:26;100425.38;;;20.05;59.79
26657;BME280;14279;50.010;8.260;2022-10-22T12:38:52;100421.59;;;19.87;60.19
26657;BME280;14279;50.010;8.260;2022-10-22T12:41:17;100421.31;;;20.01;59.76
26657;BME280;14279;50.010;8.260;2022-10-22T12:43:43;100422.28;;;20.00;60.03
26657;BME280;14279;50.010;8.260;2022-10-22T12:46:12;100422.13;;;20.23;59.28
26657;BME280;14279;50.010;8.260;2022-10-22T12:48:40;100424.13;;;20.40;58.97
26657;BME280;14279;50.010;8.260;2022-10-22T12:51:07;100407.06;;;20.54;58.46
26657;BME280;14279;50.010;8.260;2022-10-22T12:53:38;100430.72;;;20.46;59.19
26657;BME280;14279;50.010;8.260;2022-10-22T12:56:06;100428.50;;;20.61;57.77
26657;BME280;14279;50.010;8.260;2022-10-22T12:58:44;100422.94;;;20.95;56.80
26657;BME280;14279;50.010;8.260;2022-10-22T13:01:11;100423.25;;;20.71;57.07
26657;BME280;14279;50.010;8.260;2022-10-22T13:04:02;100426.50;;;20.43;57.80
26657;BME280;14279;50.010;8.260;2022-10-22T13:06:27;100429.31;;;20.42;58.06
26657;BME280;14279;50.010;8.260;2022-10-22T13:09:04;100431.56;;;21.07;57.54
26657;BME280;14279;50.010;8.260;2022-10-22T13:11:32;100431.03;;;21.13;57.03
26657;BME280;14279;50.010;8.260;2022-10-22T13:14:03;100436.72;;;21.09;56.15
26657;BME280;14279;50.010;8.260;2022-10-22T13:16:29;100437.94;;;20.95;55.90
26657;BME280;14279;50.010;8.260;2022-10-22T13:18:56;100428.41;;;20.63;56.92
26657;BME280;14279;50.010;8.260;2022-10-22T13:23:56;100414.81;;;20.77;57.22
26657;BME280;14279;50.010;8.260;2022-10-22T13:26:24;100416.66;;;20.96;57.21
26657;BME280;14279;50.010;8.260;2022-10-22T13:28:55;100428.94;;;21.07;57.39
26657;BME280;14279;50.010;8.260;2022-10-22T13:31:27;100421.97;;;21.06;56.21
26657;BME280;14279;50.010;8.260;2022-10-22T13:33:55;100423.63;;;21.17;56.10
26657;BME280;14279;50.010;8.260;2022-10-22T13:36:22;100429.38;;;20.62;56.97
26657;BME280;14279;50.010;8.260;2022-10-22T13:38:48;100417.75;;;20.43;57.43
26657;BME280;14279;50.010;8.260;2022-10-22T13:41:19;100429.22;;;20.63;56.51
26657;BME280;14279;50.010;8.260;2022-10-22T13:43:44;100433.69;;;20.63;56.92
26657;BME280;14279;50.010;8.260;2022-10-22T13:46:10;100422.41;;;20.61;56.82
26657;BME280;14279;50.010;8.260;2022-10-22T13:48:35;100417.59;;;20.35;57.79
26657;BME280;14279;50.010;8.260;2022-10-22T13:51:01;100417.59;;;20.35;57.99
26657;BME280;14279;50.010;8.260;2022-10-22T13:53:27;100422.47;;;20.39;57.95
26657;BME280;14279;50.010;8.260;2022-10-22T13:55:53;100423.44;;;20.38;57.92
26657;BME280;14279;50.010;8.260;2022-10-22T13:58:20;100432.91;;;20.10;58.79
26657;BME280;14279;50.010;8.260;2022-10-22T14:00:50;100432.19;;;20.08;58.75
26657;BME280;14279;50.010;8.260;2022-10-22T14:03:19;100430.34;;;19.98;59.09
26657;BME280;14279;50.010;8.260;2022-10-22T14:05:46;100428.34;;;20.12;58.90
26657;BME280;14279;50.010;8.260;2022-10-22T14:08:15;100434.84;;;20.08;59.56
26657;BME280;14279;50.010;8.260;2022-10-22T14:10:42;100432.59;;;20.03;59.60
26657;BME280;14279;50.010;8.260;2022-10-22T14:13:10;100434.88;;;20.18;59.72
26657;BME280;14279;50.010;8.260;2022-10-22T14:15:36;100437.09;;;20.12;59.58
26657;BME280;14279;50.010;8.260;2022-10-22T14:18:03;100431.78;;;20.12;58.93